Date,TemperatureHighF,TemperatureAvgF,TemperatureLowF,DewpointHighF,DewpointAvgF,DewpointLowF,HumidityHigh,HumidityAvg,HumidityLow,PressureMaxIn,PressureMinIn,WindSpeedMaxMPH,WindSpeedAvgMPH,GustSpeedMaxMPH,PrecipitationSumIn
2013-1-1,61.1,47.9,32.5,37.3,26.4,16.9,92,50,25,30.27,30.14,12,3,21,0.00
2013-1-2,71.7,56.2,41.3,29.6,21.2,15.9,54,26,18,30.17,30.06,14,5,26,0.00
2013-1-3,72.0,58.5,38.5,27.4,20.2,12.3,61,23,16,30.19,30.08,10,4,16,0.00
2013-1-4,73.5,49.4,33.6,35.9,25.7,13.3,76,46,13,30.28,30.17,5,1,14,0.00
2013-1-5,64.8,46.1,33.3,42.2,32.5,23.3,91,63,26,30.32,30.20,3,0,6,0.00
2013-1-6,56.2,46.2,36.6,48.4,41.8,34.8,96,85,62,30.22,30.05,6,1,8,0.03
2013-1-7,67.3,45.5,32.0,45.3,36.3,30.5,96,74,35,30.16,30.04,3,0,6,0.00
2013-1-8,85.0,55.7,38.7,52.9,40.3,28.5,86,61,24,30.13,30.05,5,1,8,0.00
2013-1-9,69.0,54.8,41.0,54.4,44.2,37.2,91,69,41,30.13,30.04,2,0,6,0.00
2013-1-10,60.6,49.0,35.5,46.6,34.9,22.6,92,62,28,30.14,29.94,7,2,16,0.00
2013-1-11,35.1,29.9,27.4,27.6,25.7,24.6,89,84,74,30.20,30.13,0,0,8,0.00
2013-1-12,61.7,40.0,28.3,30.8,26.1,18.8,89,63,23,30.20,30.11,4,1,0,0.00
2013-1-13,56.9,44.0,33.7,30.7,23.7,11.8,79,47,25,30.21,30.08,13,2,0,0.00
2013-1-14,60.9,43.9,35.3,20.5,10.8,5.5,35,26,17,30.39,30.21,7,4,14,0.00
2013-1-15,72.2,51.3,34.8,33.2,21.1,7.7,70,32,18,30.47,30.35,12,3,20,0.00
2013-1-16,77.9,61.7,51.0,37.8,26.8,20.8,36,27,19,30.38,30.15,11,6,24,0.00
2013-1-17,76.6,66.2,60.0,24.9,19.0,14.6,22,17,12,30.19,30.07,18,9,31,0.00
2013-1-18,77.5,66.8,61.8,27.9,17.8,13.5,20,15,12,30.16,30.06,12,8,23,0.00
2013-1-19,80.2,66.9,61.2,25.6,16.3,11.9,19,14,11,30.19,30.09,12,8,20,0.00
2013-1-20,80.5,68.3,60.9,23.6,15.1,10.3,19,13,10,30.15,30.02,12,8,23,0.00
2013-1-21,81.3,69.2,62.6,23.5,14.5,6.7,15,12,9,30.12,30.00,11,6,23,0.00
2013-1-22,87.8,66.7,48.3,35.4,20.6,7.9,56,20,8,30.10,29.99,9,3,23,0.00
2013-1-23,80.3,63.6,52.0,50.0,34.1,19.5,82,36,19,30.13,30.01,5,1,23,0.09
2013-1-24,63.7,56.1,51.1,56.7,52.6,46.6,95,88,74,30.19,30.09,5,2,23,0.91
2013-1-25,62.1,59.3,56.0,53.7,51.6,47.5,90,76,61,30.16,29.97,10,5,23,0.27
2013-1-26,71.3,58.6,51.6,59.7,54.2,49.4,96,86,64,30.01,29.90,4,1,23,0.14
2013-1-27,64.2,52.2,35.5,52.8,44.5,28.3,93,77,44,30.06,29.94,8,1,23,0.01
2013-1-28,61.9,44.2,32.6,41.9,34.6,30.0,95,72,41,30.23,30.06,5,1,23,0.00
2013-1-29,61.4,44.4,33.3,43.4,36.3,30.8,95,76,41,30.25,30.17,3,0,23,0.00
2013-1-30,71.1,49.3,35.8,49.3,40.5,33.8,96,75,40,30.36,30.25,5,1,23,0.01
2013-1-31,84.2,55.9,40.5,53.0,42.7,36.7,92,67,26,30.28,30.12,7,1,23,0.00
2013-2-1,82.7,58.7,44.6,52.0,43.4,36.0,85,59,27,30.19,30.13,5,1,23,0.00
2013-2-2,74.9,63.0,48.3,56.4,44.9,37.4,83,54,30,30.21,30.13,8,2,23,0.00
2013-2-3,76.2,57.9,43.5,51.7,46.2,41.1,92,68,34,30.16,30.02,3,0,23,0.00
2013-2-4,72.5,51.3,38.8,55.2,44.3,37.1,96,79,50,30.11,30.00,4,0,23,0.01
2013-2-5,61.2,49.4,39.1,52.8,46.4,37.2,98,90,70,30.11,30.02,4,0,23,0.01
2013-2-6,67.1,51.8,39.6,52.1,46.0,37.3,96,82,49,30.13,30.02,4,0,23,0.00
2013-2-7,61.4,48.0,36.0,51.3,43.0,34.3,96,84,61,30.17,30.00,3,1,23,0.01
2013-2-8,53.7,41.6,32.8,44.9,37.0,31.0,96,85,61,30.00,29.89,6,1,23,0.04
2013-2-9,63.2,43.1,30.9,46.7,34.9,29.4,96,76,37,30.13,29.97,4,1,23,0.01
2013-2-10,57.8,42.6,32.3,44.1,36.7,30.5,96,81,55,30.12,30.03,4,1,23,0.01
2013-2-11,72.6,45.8,30.5,42.9,33.1,25.3,96,69,20,30.27,30.10,8,1,23,0.01
2013-2-12,65.6,47.5,34.1,37.8,30.2,21.5,93,55,25,30.36,30.26,6,1,23,0.00
2013-2-13,73.3,50.0,35.1,48.0,36.4,30.2,92,64,22,30.29,30.16,7,1,23,0.00
2013-2-14,84.8,54.2,34.9,45.2,37.0,30.9,90,61,18,30.22,30.08,8,2,23,0.00
2013-2-15,82.0,66.9,44.2,34.9,29.0,20.9,66,27,15,30.22,30.13,13,6,28,0.00
2013-2-16,83.8,65.6,40.8,37.1,27.7,19.8,67,28,11,30.17,29.98,9,4,23,0.00
2013-2-17,69.6,53.3,37.4,49.8,39.1,26.4,88,61,30,30.03,29.93,3,1,23,0.00
2013-2-18,64.8,53.2,43.9,49.4,46.0,40.4,96,78,52,30.07,29.95,5,1,23,0.00
2013-2-19,55.6,47.8,38.9,46.8,42.7,36.8,93,83,61,29.99,29.73,4,1,23,0.12
2013-2-20,63.3,44.5,29.6,42.3,34.9,26.9,93,72,38,30.02,29.73,4,1,23,0.01
2013-2-21,62.4,44.3,30.3,45.0,35.1,27.7,95,73,40,30.13,30.00,4,1,8,0.00
2013-2-22,67.8,48.8,34.7,43.4,35.0,29.9,90,63,28,30.21,30.13,4,1,9,0.00
2013-2-23,64.1,48.9,34.3,51.2,38.5,25.1,92,70,36,30.18,29.93,10,1,16,0.00
2013-2-24,62.3,52.1,46.6,32.4,24.4,19.8,48,35,20,30.19,30.04,11,5,21,0.00
2013-2-25,69.1,50.1,34.3,38.1,26.3,11.5,86,45,17,30.24,30.08,6,1,9,0.00
2013-2-26,80.9,51.9,31.3,42.8,32.9,23.9,92,56,16,30.16,30.00,8,1,15,0.00
2013-2-27,83.0,61.7,41.0,38.2,24.7,13.7,68,27,12,30.30,30.16,11,4,15,0.00
2013-2-28,82.7,58.5,38.4,42.1,32.0,22.0,74,43,13,30.34,30.25,5,1,17,0.00
2013-3-1,91.5,62.8,43.5,38.4,32.4,26.7,67,38,13,30.33,30.17,9,2,15,0.00
2013-3-2,83.9,65.9,48.4,43.8,37.0,27.2,79,38,16,30.22,30.08,5,1,8,0.00
2013-3-3,69.4,57.4,45.9,52.4,46.1,38.9,88,67,40,30.11,29.98,4,1,9,0.00
2013-3-4,68.4,52.5,40.4,53.0,45.9,38.5,96,80,53,30.11,30.01,4,1,7,0.00
2013-3-5,64.1,51.6,40.7,52.5,46.9,38.5,95,85,62,30.14,30.04,3,1,5,0.00
2013-3-6,56.4,50.0,39.3,48.7,44.9,36.9,95,83,63,30.17,30.03,3,0,5,0.00
2013-3-7,61.7,52.5,46.2,48.8,45.4,39.8,93,79,46,30.03,29.84,4,1,10,0.16
2013-3-8,58.0,48.8,42.6,48.3,44.2,41.0,95,85,64,30.04,29.79,5,1,6,0.36
2013-3-9,69.6,50.4,36.8,48.7,42.5,35.2,96,77,42,30.24,30.04,3,1,10,0.00
2013-3-10,78.6,55.9,37.6,45.0,37.6,27.5,92,59,18,30.30,30.17,5,1,7,0.01
2013-3-11,77.3,57.0,42.0,52.2,40.1,31.9,85,57,29,30.19,30.06,3,1,6,0.00
2013-3-12,79.3,57.1,40.8,55.0,44.6,37.6,94,67,32,30.10,30.03,3,0,5,0.00
2013-3-13,89.3,63.8,47.6,57.5,46.3,37.5,86,57,20,30.12,30.03,5,1,9,0.00
2013-3-14,80.7,60.2,43.4,57.5,48.0,40.4,92,67,33,30.10,30.02,4,1,7,0.00
2013-3-15,76.2,57.9,45.5,58.9,50.0,42.7,94,77,52,30.03,29.95,3,0,6,0.00
2013-3-16,69.3,53.7,45.7,56.7,49.2,43.6,96,86,57,29.99,29.89,3,1,6,0.01
2013-3-17,73.3,53.6,41.2,56.8,47.9,39.6,96,83,53,30.02,29.94,4,1,8,0.01
2013-3-18,63.4,51.8,40.4,53.2,47.1,38.5,96,85,66,30.10,29.99,3,0,6,0.00
2013-3-19,71.1,55.0,42.7,56.9,49.1,41.1,96,82,53,30.14,30.05,3,1,8,0.01
2013-3-20,69.9,57.4,48.6,58.2,50.7,46.4,95,80,56,30.11,29.97,3,1,7,0.00
2013-3-21,75.4,57.4,43.9,55.0,48.7,41.7,96,76,44,29.97,29.82,3,1,7,0.00
2013-3-22,76.3,56.3,38.0,50.4,41.9,35.6,95,64,27,29.92,29.81,3,1,7,0.01
2013-3-23,73.1,53.2,35.4,52.7,40.3,28.7,90,65,26,30.02,29.91,4,1,8,0.00
2013-3-24,77.4,56.0,38.5,52.5,44.1,36.4,96,69,34,30.04,29.91,4,1,6,0.00
2013-3-25,74.6,56.1,39.4,55.5,45.2,36.4,95,70,41,29.99,29.91,2,0,5,0.00
2013-3-26,71.8,54.8,40.9,54.2,46.6,38.8,98,76,51,29.98,29.92,4,1,6,0.01
2013-3-27,70.0,54.9,43.5,54.0,47.7,41.3,95,78,55,30.06,29.94,4,1,7,0.00
2013-3-28,73.0,54.6,42.2,56.3,48.3,40.3,96,81,53,30.10,30.03,3,1,7,0.00
2013-3-29,76.3,57.8,43.7,58.3,50.6,41.8,96,79,47,30.13,30.05,4,1,8,0.01
2013-3-30,75.7,59.8,52.3,56.2,51.7,48.7,94,77,44,30.14,30.06,3,1,7,0.00
2013-3-31,66.7,57.9,52.7,58.9,52.9,49.9,92,84,65,30.13,30.07,4,1,7,0.01
2013-4-1,67.5,57.0,50.3,54.6,50.9,47.5,93,81,62,30.18,30.10,5,1,8,0.00
2013-4-2,73.5,58.0,43.4,56.7,49.7,41.2,96,76,47,30.12,30.01,4,1,7,0.00
2013-4-3,78.0,59.1,44.0,58.2,51.1,42.1,96,77,46,30.10,30.01,3,1,7,0.00
2013-4-4,72.7,58.9,50.9,57.9,53.3,47.8,93,83,56,30.13,30.02,4,1,10,0.00
2013-4-5,71.7,59.2,49.9,58.1,53.3,46.9,92,82,58,30.12,30.00,4,1,7,0.00
2013-4-6,75.0,58.0,45.4,57.5,51.1,43.5,96,80,52,30.12,29.97,5,1,9,0.01
2013-4-7,77.5,59.7,46.1,56.7,50.1,44.2,96,74,40,29.98,29.80,4,1,7,0.01
2013-4-8,75.2,57.1,45.8,49.0,41.3,31.0,94,62,24,29.86,29.66,8,2,12,0.00
2013-4-9,74.7,55.6,38.0,45.1,37.8,27.3,91,58,20,30.02,29.85,4,1,10,0.00
2013-4-10,84.9,63.5,43.9,43.3,34.4,23.2,76,40,13,30.12,29.99,3,1,7,0.00
2013-4-11,74.0,58.2,42.7,51.9,43.6,35.9,83,61,36,29.99,29.78,4,1,8,0.00
2013-4-12,72.1,56.0,43.8,56.1,48.6,41.3,95,78,55,29.88,29.80,4,1,11,0.00
2013-4-13,67.4,55.4,45.3,56.1,50.6,42.5,95,85,64,29.93,29.85,4,1,9,0.00
2013-4-14,61.8,56.2,53.2,54.1,51.5,49.6,94,85,70,29.90,29.83,2,0,8,0.00
2013-4-15,63.2,55.3,45.6,52.1,48.8,41.4,90,79,65,29.91,29.84,4,1,9,0.00
2013-4-16,66.2,52.4,40.5,46.5,41.0,26.7,95,68,34,30.03,29.88,5,1,12,0.00
2013-4-17,73.3,52.9,34.9,42.8,33.9,26.9,83,53,22,30.15,30.03,4,1,12,0.00
2013-4-18,83.2,62.1,42.7,36.1,26.6,18.7,63,30,11,30.24,30.13,9,2,13,0.01
2013-4-19,84.4,63.8,43.7,43.9,33.6,25.2,69,38,13,30.18,29.98,4,1,7,0.00
2013-4-20,87.6,64.1,44.1,56.2,44.7,34.5,81,53,22,30.00,29.89,5,1,7,0.00
2013-4-21,85.0,63.6,46.0,53.8,47.9,41.0,91,62,30,30.00,29.93,4,1,6,0.00
2013-4-22,74.9,59.9,51.3,56.7,52.5,49.4,95,79,50,30.00,29.89,3,1,6,0.00
2013-4-23,74.5,61.0,49.9,55.5,51.7,45.6,86,73,49,29.97,29.88,3,1,10,0.00
2013-4-24,60.0,55.8,50.1,54.3,52.2,46.4,91,88,80,30.01,29.90,1,0,3,0.00
2013-4-25,73.3,59.9,48.5,51.2,48.7,44.1,91,69,42,30.14,29.98,4,1,7,0.00
2013-4-26,75.1,59.0,44.1,54.7,48.3,41.7,95,71,45,30.17,30.11,5,1,9,0.00
2013-4-27,78.0,60.8,45.8,58.3,51.0,43.5,95,73,47,30.15,30.00,3,1,7,0.00
2013-4-28,76.3,59.4,45.8,59.6,52.0,43.6,95,78,54,30.02,29.86,4,1,7,0.00
2013-4-29,75.3,60.9,52.8,60.2,54.7,50.9,95,82,58,29.91,29.80,3,1,9,0.00
2013-4-30,71.5,60.8,56.0,57.6,54.2,52.4,92,80,57,29.90,29.83,4,0,9,0.00
2013-5-1,77.5,64.1,49.9,58.0,54.0,46.4,88,71,48,30.11,29.90,3,1,8,0.00
2013-5-2,96.0,71.0,45.4,49.0,29.7,11.2,94,36,5,30.15,30.02,15,5,33,0.00
2013-5-3,94.7,73.4,50.0,50.1,31.1,15.1,60,26,6,30.05,29.76,6,1,33,0.00
2013-5-4,79.2,61.8,46.6,57.1,48.5,37.4,83,63,38,29.84,29.72,4,1,33,0.00
2013-5-5,65.2,59.1,54.5,52.4,50.3,48.4,91,73,56,29.94,29.82,6,2,33,0.00
2013-5-6,68.7,59.6,54.6,58.0,52.9,49.3,94,80,52,30.03,29.89,3,0,33,0.15
2013-5-7,72.5,60.2,52.8,59.4,51.5,47.6,92,75,43,30.07,29.99,4,1,33,0.00
2013-5-8,72.5,60.8,51.1,53.6,51.1,46.7,92,73,46,30.11,30.07,5,1,33,0.01
2013-5-9,73.0,59.7,45.9,56.6,50.4,43.4,95,74,51,30.10,30.02,4,1,33,0.00
2013-5-10,80.1,64.0,50.4,61.4,54.5,48.0,95,74,46,30.11,30.01,5,1,8,0.00
2013-5-11,83.8,66.2,50.4,63.5,56.4,48.0,96,73,45,30.08,30.01,4,1,8,0.00
2013-5-12,92.7,73.2,53.5,64.2,57.8,50.7,96,63,31,30.06,29.93,3,1,7,0.00
2013-5-13,92.7,72.9,56.4,64.8,56.4,51.3,93,60,29,29.98,29.90,4,1,6,0.00
2013-5-14,75.7,62.4,51.2,58.8,53.1,46.9,97,73,50,30.00,29.90,5,1,9,0.00
2013-5-15,73.4,60.2,47.4,58.2,51.7,45.1,95,75,54,30.05,29.96,4,1,8,0.00
2013-5-16,71.9,58.6,46.5,58.5,52.3,44.0,96,81,60,30.00,29.92,4,0,8,0.00
2013-5-17,73.1,60.8,50.3,57.7,52.3,47.3,93,75,54,30.00,29.92,5,1,9,0.00
2013-5-18,76.0,61.5,46.7,57.5,50.9,44.2,95,71,41,30.06,29.98,4,1,8,0.01
2013-5-19,82.5,63.5,45.5,57.1,51.5,43.3,96,69,39,30.00,29.87,4,1,8,0.00
2013-5-20,82.6,65.5,49.0,60.3,54.4,46.9,96,70,45,29.95,29.89,4,1,9,0.01
2013-5-21,79.5,64.3,51.1,63.5,55.5,48.3,95,75,52,29.95,29.84,3,1,10,0.00
2013-5-22,74.8,61.6,50.3,57.4,51.8,45.6,92,72,46,29.86,29.78,4,1,8,0.00
2013-5-23,71.7,59.7,48.0,54.6,49.0,44.6,92,70,45,29.96,29.84,6,1,8,0.00
2013-5-24,73.2,58.9,45.2,56.2,49.1,42.4,95,72,50,29.99,29.92,4,1,10,0.00
2013-5-25,73.4,59.7,45.8,57.0,49.6,43.0,96,71,50,30.03,29.97,4,1,10,0.00
2013-5-26,74.0,59.2,45.4,57.9,50.0,42.8,95,73,49,30.05,30.00,4,1,11,0.00
2013-5-27,77.3,61.6,47.3,59.1,52.2,44.8,95,73,48,30.01,29.86,5,1,10,0.00
2013-5-28,81.4,66.2,53.7,59.7,55.5,50.9,95,71,43,29.89,29.75,4,1,10,0.00
2013-5-29,85.3,66.0,51.7,60.9,54.6,49.5,95,70,36,29.82,29.72,5,1,10,0.01
2013-5-30,81.6,64.9,49.4,61.3,54.5,46.9,95,72,47,29.88,29.77,5,1,10,0.00
2013-5-31,81.9,65.6,51.7,62.6,56.2,49.2,95,74,48,29.92,29.82,4,1,10,0.00
2013-6-1,85.7,67.6,52.0,64.6,57.6,48.9,95,73,48,29.86,29.75,4,1,10,0.00
2013-6-2,75.3,63.4,54.5,63.0,58.1,51.3,97,84,64,29.83,29.78,3,1,4,0.00
2013-6-3,77.8,65.8,57.2,61.2,57.4,52.3,96,76,53,29.91,29.80,4,1,8,0.00
2013-6-4,76.2,64.5,53.7,60.4,56.0,49.3,89,75,55,29.99,29.89,4,1,11,0.00
2013-6-5,76.3,60.5,47.3,59.4,53.1,44.7,95,78,54,30.02,29.94,3,1,6,0.00
2013-6-6,75.7,61.7,50.0,60.5,54.8,46.9,93,80,56,29.97,29.89,4,1,8,0.00
2013-6-7,79.2,64.2,57.3,61.9,56.9,54.1,93,79,53,29.93,29.80,3,1,8,0.00
2013-6-8,76.3,64.4,58.0,61.8,57.8,54.0,94,80,60,29.92,29.80,4,1,8,0.00
2013-6-9,76.7,64.5,57.8,63.1,57.8,53.3,95,80,60,29.93,29.89,3,0,7,0.00
2013-6-10,77.9,66.3,57.9,57.9,55.5,53.7,88,70,48,29.98,29.90,4,1,7,0.00
2013-6-11,81.8,67.3,53.0,62.6,57.1,50.1,94,72,46,29.96,29.90,3,1,7,0.00
2013-6-12,75.1,63.7,56.4,62.4,57.9,55.6,97,82,63,30.03,29.93,6,1,10,0.00
2013-6-13,77.7,65.5,56.2,62.3,57.6,51.9,90,77,56,30.03,29.91,3,1,7,0.00
2013-6-14,79.3,63.4,50.0,62.1,56.0,47.8,95,78,53,29.93,29.85,4,1,7,0.01
2013-6-15,77.3,65.7,59.2,60.6,57.3,55.2,90,76,54,29.99,29.90,3,1,7,0.00
2013-6-16,78.7,65.5,54.7,61.0,56.6,50.9,89,75,52,30.05,29.96,3,1,7,0.00
2013-6-17,82.4,64.3,50.2,62.8,55.6,48.2,95,76,47,30.00,29.89,4,1,7,0.00
2013-6-18,79.7,64.0,50.7,60.8,54.5,48.5,96,73,45,29.94,29.84,4,1,9,0.02
2013-6-19,85.3,65.6,49.5,58.2,52.1,46.8,95,66,27,29.89,29.79,4,1,8,0.00
2013-6-20,83.8,64.4,47.4,59.2,51.8,44.8,95,68,36,29.86,29.81,4,1,7,0.00
2013-6-21,82.7,66.6,50.0,60.0,53.3,47.5,95,66,40,29.91,29.84,4,1,8,0.00
2013-6-22,81.0,65.3,50.6,61.9,55.1,47.6,94,71,47,29.91,29.83,4,1,8,0.00
2013-6-23,73.1,61.9,51.1,61.5,54.9,48.6,94,79,60,29.89,29.81,4,0,7,0.00
2013-6-24,73.5,63.1,52.2,61.3,56.2,49.5,94,79,63,29.96,29.83,2,0,6,0.00
2013-6-25,79.3,67.8,58.7,63.6,59.2,56.0,92,75,54,30.00,29.92,4,1,8,0.00
2013-6-26,87.1,71.8,56.9,65.7,60.3,53.9,93,70,46,29.99,29.93,3,1,7,0.00
2013-6-27,91.9,74.8,60.5,68.6,62.3,57.2,91,68,42,30.02,29.97,3,0,6,0.00
2013-6-28,92.0,75.3,59.3,67.9,62.1,56.1,93,67,40,29.99,29.87,3,1,5,0.00
2013-6-29,95.2,77.3,61.6,67.7,62.7,58.3,92,64,37,29.88,29.74,3,1,7,0.00
2013-6-30,97.8,77.5,62.5,67.7,63.0,58.6,90,64,32,29.82,29.71,4,1,7,0.00
2013-7-1,91.0,73.6,61.8,69.3,63.4,58.5,93,73,46,29.88,29.79,3,0,7,0.00
2013-7-2,83.1,71.5,62.3,67.6,62.7,59.0,93,75,54,30.00,29.87,4,1,7,0.00
2013-7-3,86.0,69.0,59.9,66.5,61.3,57.6,94,78,50,29.93,29.81,4,1,7,0.00
2013-7-4,81.8,69.3,60.6,65.2,61.3,57.8,94,77,53,29.85,29.76,3,1,6,0.00
2013-7-5,81.1,68.6,61.2,65.3,61.4,57.9,92,79,56,29.86,29.77,3,0,5,0.00
2013-7-6,79.1,67.1,61.6,66.1,61.3,57.4,92,83,60,29.84,29.76,5,1,10,0.00
2013-7-7,81.9,67.7,58.7,65.5,60.2,54.5,94,79,53,29.88,29.79,3,1,8,0.00
2013-7-8,85.3,67.2,54.1,65.1,58.0,51.2,95,75,45,29.94,29.87,4,1,7,0.00
2013-7-9,90.9,71.2,55.4,65.9,58.7,52.6,94,68,38,29.99,29.92,4,1,7,0.00
2013-7-10,88.4,69.7,58.6,66.7,60.5,55.0,91,74,46,29.98,29.89,3,0,5,0.00
2013-7-11,79.0,70.3,62.9,67.2,62.8,58.1,86,77,65,29.97,29.90,2,0,6,0.00
2013-7-12,83.4,68.1,57.2,67.2,60.3,54.9,95,78,51,29.94,29.88,3,1,7,0.00
2013-7-13,83.5,68.0,58.1,64.1,59.2,54.7,95,76,49,29.97,29.88,4,1,7,0.00
2013-7-14,84.7,69.2,54.5,65.2,58.2,51.9,95,71,44,29.95,29.82,4,1,7,0.00
2013-7-15,82.5,67.3,54.9,60.7,55.8,50.2,94,69,44,29.88,29.82,5,1,8,0.00
2013-7-16,84.7,65.1,49.7,60.4,53.2,46.7,95,70,36,29.99,29.88,4,1,6,0.01
2013-7-17,87.2,68.0,49.8,58.7,53.2,46.7,94,64,29,30.03,29.97,3,1,8,0.00
2013-7-18,84.8,67.1,51.3,62.2,55.8,48.4,95,70,40,29.99,29.88,4,1,7,0.01
2013-7-19,83.2,66.7,52.4,61.9,55.8,49.6,94,71,43,29.92,29.83,3,1,9,0.00
2013-7-20,81.3,66.1,53.5,64.9,58.1,50.7,93,77,57,29.90,29.78,5,1,9,0.00
2013-7-21,76.4,67.1,61.8,65.4,61.1,57.9,89,81,68,29.94,29.81,2,0,7,0.00
2013-7-22,84.5,70.2,62.3,68.1,62.1,57.6,94,77,52,30.00,29.92,2,1,10,0.01
2013-7-23,82.4,67.9,59.1,64.8,59.3,56.3,93,76,48,30.05,29.96,3,1,5,0.00
2013-7-24,78.9,66.2,57.6,63.5,58.4,54.2,93,77,55,29.99,29.91,4,1,9,0.00
2013-7-25,79.5,65.9,56.6,63.6,58.1,53.3,93,77,55,30.03,29.94,4,1,8,0.00
2013-7-26,82.6,66.7,57.0,64.6,59.1,54.0,96,78,50,30.11,30.01,3,1,5,0.00
2013-7-27,81.8,66.7,56.7,63.1,58.0,53.9,93,75,50,30.03,29.90,3,1,6,0.00
2013-7-28,76.2,64.9,56.4,63.0,58.0,53.8,92,79,60,29.95,29.89,4,1,7,0.00
2013-7-29,79.4,66.0,56.3,61.7,57.2,51.2,89,75,51,30.05,29.93,4,1,7,0.00
2013-7-30,78.0,64.4,53.8,61.4,56.0,49.8,93,76,53,30.14,30.05,4,1,11,0.00
2013-7-31,78.2,62.6,51.5,60.7,55.3,48.1,97,79,53,30.13,30.02,3,1,10,0.00
2013-8-1,78.7,64.6,56.0,60.7,56.1,51.4,92,76,50,30.05,29.92,4,1,8,0.00
2013-8-2,77.0,63.4,49.8,61.7,55.6,47.4,96,77,57,29.99,29.93,3,1,6,0.00
2013-8-3,80.2,63.6,51.7,62.8,56.2,49.0,94,78,52,30.02,29.95,4,1,7,0.01
2013-8-4,80.2,62.8,51.1,62.5,55.3,48.0,95,79,50,30.04,29.95,3,1,7,0.00
2013-8-5,81.6,63.2,47.2,61.7,53.9,45.0,96,75,46,30.03,29.94,3,1,8,0.01
2013-8-6,78.1,63.0,51.0,60.3,55.4,47.8,94,78,51,30.06,29.98,3,1,9,0.01
2013-8-7,77.9,62.8,50.2,60.8,55.0,48.0,95,78,50,30.10,30.00,3,1,13,0.00
2013-8-8,81.4,63.5,48.7,61.7,55.0,46.4,96,76,48,30.02,29.93,4,1,7,0.00
2013-8-9,77.0,63.4,50.6,61.5,55.2,48.7,95,77,52,29.98,29.92,4,1,7,0.01
2013-8-10,78.7,62.7,49.6,61.7,55.0,47.4,96,78,52,30.04,29.98,4,1,10,0.00
2013-8-11,80.2,62.7,52.2,62.1,55.5,50.2,95,79,49,30.02,29.92,3,0,7,0.01
2013-8-12,81.1,64.7,50.6,63.2,56.6,48.1,95,77,53,29.99,29.92,3,1,8,0.00
2013-8-13,83.2,65.7,53.5,64.3,57.4,50.3,95,77,50,30.00,29.90,3,1,8,0.00
2013-8-14,85.6,65.8,50.5,66.4,57.4,48.3,95,77,47,29.95,29.85,4,1,6,0.01
2013-8-15,85.3,65.3,51.8,66.4,57.9,49.8,95,79,50,29.96,29.90,3,1,8,0.00
2013-8-16,87.8,69.7,55.1,64.7,58.8,52.8,95,72,41,29.98,29.92,3,0,7,0.01
2013-8-17,87.6,68.4,54.2,64.6,57.8,51.3,94,72,41,29.96,29.83,3,1,7,0.00
2013-8-18,82.9,65.3,51.5,63.5,56.5,49.0,95,75,48,29.92,29.83,3,1,7,0.00
2013-8-19,82.2,66.5,57.6,65.9,59.2,54.7,95,79,55,29.97,29.88,3,1,10,0.00
2013-8-20,86.1,66.7,57.1,65.2,58.5,52.6,95,77,44,29.97,29.88,4,1,7,0.00
2013-8-21,84.0,66.7,51.9,63.4,56.3,49.5,95,72,42,29.95,29.87,3,1,7,0.01
2013-8-22,91.0,69.2,52.7,62.9,55.3,49.5,95,66,26,29.94,29.84,3,1,7,0.00
2013-8-23,89.0,66.6,50.9,61.4,54.3,48.1,94,69,32,29.88,29.76,3,0,10,0.00
2013-8-24,88.0,65.0,49.6,61.6,54.2,47.1,95,72,37,29.88,29.78,3,0,9,0.01
2013-8-25,91.2,67.4,49.4,61.6,54.1,47.2,95,67,29,29.93,29.85,3,1,7,0.00
2013-8-26,95.2,71.3,50.5,59.8,53.1,44.3,89,59,20,29.94,29.84,3,0,8,0.00
2013-8-27,92.6,75.8,65.1,63.7,58.4,52.8,75,57,31,29.86,29.78,2,0,8,0.00
2013-8-28,95.6,74.1,60.0,64.7,57.4,49.4,84,61,23,29.89,29.78,2,0,8,0.00
2013-8-29,99.8,77.0,59.4,65.1,57.6,50.4,85,55,26,29.94,29.87,4,0,7,0.00
2013-8-30,99.8,81.5,65.6,69.6,62.8,56.5,80,56,33,29.96,29.90,5,0,8,0.00
2013-8-31,91.9,79.4,68.8,71.0,66.0,60.3,82,65,47,29.96,29.87,4,1,11,0.00
2013-9-1,90.8,76.2,66.9,72.1,66.4,62.1,85,73,52,29.93,29.85,4,0,8,0.00
2013-9-2,91.7,74.2,63.0,71.1,65.3,60.5,95,76,48,29.92,29.81,3,0,7,0.00
2013-9-3,94.4,77.5,63.2,69.9,64.4,60.1,94,67,39,29.90,29.82,2,0,5,0.00
2013-9-4,95.0,75.9,61.2,67.2,61.8,57.6,92,65,36,29.92,29.84,3,0,6,0.00
2013-9-5,99.1,76.0,59.4,66.0,60.5,56.2,92,64,30,29.89,29.82,2,0,7,0.00
2013-9-6,100.2,77.1,60.5,64.3,58.5,54.5,88,58,27,29.87,29.79,3,0,6,0.00
2013-9-7,96.3,72.6,58.5,65.2,56.5,51.0,84,61,26,29.87,29.80,4,0,7,0.00
2013-9-8,86.7,69.7,59.5,64.8,58.3,55.1,90,70,38,29.85,29.75,3,1,6,0.00
2013-9-9,79.8,64.7,55.6,63.9,57.3,53.0,94,78,53,29.83,29.75,4,0,7,0.00
2013-9-10,79.8,65.2,56.8,62.0,57.6,52.3,94,78,53,29.95,29.82,3,0,5,0.00
2013-9-11,81.1,64.7,54.2,63.1,57.0,50.9,94,78,51,30.02,29.94,3,0,6,0.00
2013-9-12,88.5,67.2,52.0,63.3,56.4,49.7,96,72,38,29.95,29.84,4,1,8,0.00
2013-9-13,89.5,69.4,52.6,62.8,56.3,49.7,95,67,37,29.84,29.68,3,0,7,0.00
2013-9-14,89.3,70.8,56.2,63.8,57.3,52.8,93,66,37,29.73,29.65,3,0,7,0.00
2013-9-15,88.9,70.2,55.7,66.4,58.1,52.2,93,69,41,29.78,29.68,3,0,6,0.00
2013-9-16,92.4,69.0,53.7,66.0,56.6,50.4,94,69,32,29.84,29.75,3,0,7,0.00
2013-9-17,82.1,64.0,49.6,61.9,54.9,47.4,96,75,47,29.82,29.74,3,0,6,0.00
2013-9-18,79.1,63.0,50.1,62.1,55.3,47.9,96,78,53,29.83,29.76,3,0,6,0.01
2013-9-19,80.6,64.4,50.5,64.3,57.1,48.4,96,79,55,29.84,29.77,3,1,7,0.00
2013-9-20,65.4,62.3,61.3,60.3,58.7,58.0,90,88,83,29.90,29.83,0,0,6,0.00
2013-9-21,75.5,64.3,56.8,61.6,58.4,52.4,92,82,56,29.93,29.81,5,1,8,0.00
2013-9-22,83.1,64.4,50.0,58.9,51.8,46.2,95,68,29,29.88,29.78,3,1,5,0.01
2013-9-23,95.5,69.4,49.6,58.0,47.9,41.4,86,53,18,29.89,29.83,3,0,7,0.00
2013-9-24,91.5,67.0,50.4,57.0,49.3,43.1,84,58,23,29.94,29.84,3,0,7,0.00
2013-9-25,77.7,61.8,48.6,60.6,52.0,45.9,94,72,45,29.85,29.70,4,0,10,0.00
2013-9-26,76.6,61.1,49.1,54.6,49.3,43.2,93,69,32,29.91,29.73,4,1,9,0.00
2013-9-27,91.1,63.4,43.1,45.2,39.6,31.8,90,51,14,30.01,29.91,6,1,11,0.00
2013-9-28,90.2,66.7,48.8,46.2,39.1,31.5,69,42,14,30.05,29.98,3,0,7,0.00
2013-9-29,90.2,65.0,45.5,50.7,42.6,35.7,82,50,21,30.07,29.98,3,0,7,0.00
2013-9-30,89.7,65.3,46.1,55.8,47.7,39.6,86,58,25,29.99,29.85,2,0,7,0.00
2013-10-1,82.6,64.2,49.1,60.1,52.9,46.0,95,70,41,29.93,29.87,3,0,7,0.00
2013-10-2,79.0,62.4,50.8,61.2,54.6,48.0,94,77,50,29.98,29.89,3,0,7,0.00
2013-10-3,76.4,62.8,51.7,60.1,55.5,48.6,93,78,56,29.94,29.83,3,0,7,0.00
2013-10-4,86.8,68.9,49.0,49.4,29.9,18.9,94,33,10,30.07,29.89,16,6,34,0.00
2013-10-5,91.8,76.9,69.4,30.9,25.7,20.9,21,15,9,30.15,30.05,16,6,36,0.00
2013-10-6,102.7,76.8,55.0,43.7,30.2,18.9,64,22,5,30.09,29.96,8,2,36,0.00
2013-10-7,85.5,62.7,48.7,54.6,42.9,32.9,85,52,20,29.99,29.91,4,1,10,0.00
2013-10-8,75.6,58.6,42.7,57.9,50.0,39.3,94,75,48,29.93,29.83,4,1,10,0.00
2013-10-9,64.1,56.1,43.2,52.8,48.9,39.8,89,78,54,29.83,29.69,5,1,10,0.00
2013-10-10,68.7,53.1,40.5,52.9,45.7,38.4,96,78,52,30.05,29.81,4,1,10,0.01
2013-10-11,74.5,56.2,43.7,56.4,48.3,41.6,96,77,50,30.06,29.97,4,1,10,0.01
2013-10-12,76.5,56.8,43.2,57.7,48.6,41.4,96,77,45,29.99,29.90,4,1,10,0.00
2013-10-13,72.2,55.3,43.1,55.3,48.5,41.2,96,80,52,30.04,29.95,3,1,10,0.01
2013-10-14,91.3,63.4,44.1,56.6,44.8,35.6,96,60,16,30.04,29.93,10,2,23,0.01
2013-10-15,96.1,72.4,52.1,43.6,35.3,30.2,58,28,12,29.97,29.88,8,3,17,0.00
2013-10-16,94.8,72.1,48.4,43.1,32.4,26.7,66,27,10,30.08,29.97,10,3,16,0.00
2013-10-17,84.3,63.5,47.9,51.7,39.8,29.5,82,46,18,30.04,29.93,4,1,12,0.00
2013-10-18,85.8,62.6,43.9,58.4,45.9,37.5,84,59,26,30.01,29.95,3,0,12,0.00
2013-10-19,87.1,65.5,50.5,56.2,43.9,28.4,89,49,21,30.03,29.96,4,1,12,0.00
2013-10-20,79.9,58.4,42.8,60.2,49.0,37.3,94,73,46,29.99,29.91,3,0,12,0.00
2013-10-21,75.7,57.1,45.5,58.9,50.5,43.1,95,80,53,30.00,29.92,3,0,12,0.01
2013-10-22,75.5,57.1,45.8,58.6,51.3,43.5,96,82,54,30.02,29.93,3,0,12,0.01
2013-10-23,74.2,57.0,50.9,59.0,52.9,48.1,95,87,56,30.00,29.91,2,0,12,0.01
2013-10-24,74.1,60.6,53.5,56.6,53.3,48.5,89,78,53,30.07,29.97,2,0,7,0.00
2013-10-25,75.0,58.9,49.4,59.7,53.2,46.5,93,83,57,30.15,30.03,3,1,6,0.00
2013-10-26,81.8,59.4,43.6,60.9,51.0,42.0,96,77,43,30.12,30.00,3,0,6,0.01
2013-10-27,73.5,57.2,42.1,59.0,50.6,39.7,96,80,55,30.00,29.83,4,1,9,0.00
2013-10-28,65.8,56.9,49.6,53.7,49.1,44.7,90,76,51,29.95,29.80,4,1,8,0.01
2013-10-29,67.7,54.2,42.4,51.2,46.4,39.7,95,77,49,30.03,29.94,5,1,9,0.00
2013-10-30,76.0,54.6,41.4,50.1,44.1,39.3,96,73,28,30.09,30.00,4,0,9,0.00
2013-10-31,81.2,57.0,39.3,50.9,42.1,36.9,95,65,21,30.11,30.02,3,0,8,0.01
2013-11-1,95.1,63.4,45.2,50.5,38.3,34.1,81,47,13,30.12,29.97,5,1,11,0.00
2013-11-2,85.2,64.4,46.3,49.4,39.8,31.9,80,44,21,30.00,29.88,4,1,6,0.00
2013-11-3,74.3,55.0,41.7,55.8,47.3,38.0,95,77,50,29.93,29.83,3,0,6,0.00
2013-11-4,72.6,58.3,44.0,55.5,50.1,41.3,92,76,49,29.97,29.81,3,1,7,0.00
2013-11-5,78.9,61.2,38.8,40.8,27.0,15.0,90,34,13,30.17,29.98,10,3,16,0.01
2013-11-6,85.8,71.4,60.7,27.1,19.8,15.2,18,14,9,30.21,30.12,8,5,20,0.00
2013-11-7,93.7,71.1,51.5,42.0,30.6,18.8,56,26,9,30.12,29.99,5,2,14,0.00
2013-11-8,83.2,60.2,43.8,53.3,38.3,27.8,81,48,20,30.03,29.93,2,0,14,0.00
2013-11-9,79.7,56.3,41.3,56.5,45.9,37.1,92,72,35,30.09,29.99,3,0,6,0.00
2013-11-10,89.1,57.3,40.9,52.8,42.8,25.4,93,65,10,30.14,30.06,3,0,5,0.00
2013-11-11,80.2,57.9,42.2,52.0,42.6,32.6,90,61,28,30.15,30.05,2,0,6,0.00
2013-11-12,79.9,61.1,48.1,56.1,46.7,36.0,89,61,29,30.18,30.09,1,0,3,0.00
2013-11-13,98.9,70.2,50.7,48.6,38.0,32.2,65,36,10,30.09,29.92,3,1,8,0.00
2013-11-14,98.6,68.9,49.8,56.1,41.2,31.9,82,41,14,29.94,29.75,5,1,8,0.00
2013-11-15,71.8,55.2,44.3,55.3,48.2,40.3,94,79,51,29.77,29.67,4,0,7,0.00
2013-11-16,67.8,57.8,50.1,55.8,52.0,47.8,94,82,61,29.95,29.75,3,1,7,0.00
2013-11-17,71.4,56.4,45.5,54.0,48.5,42.2,95,77,47,30.11,29.95,3,0,6,0.00
2013-11-18,69.3,53.6,41.6,55.2,48.1,39.7,96,83,56,30.18,30.08,4,0,6,0.00
2013-11-19,67.1,54.9,46.2,54.7,49.4,43.1,94,82,61,30.12,29.97,2,0,5,0.00
2013-11-20,65.4,56.8,48.3,55.3,52.0,45.7,94,85,65,29.99,29.89,2,0,5,0.25
2013-11-21,64.2,57.0,53.3,58.0,52.9,42.1,96,86,64,29.90,29.83,7,1,14,0.28
2013-11-22,60.7,54.3,51.1,43.5,40.0,37.7,67,58,51,30.00,29.88,14,9,29,0.01
2013-11-23,66.0,55.0,50.7,43.4,40.2,38.4,65,58,43,30.13,29.98,13,6,29,0.00
2013-11-24,75.9,56.6,42.2,48.3,42.4,39.0,90,62,28,30.23,30.11,7,1,14,0.00
2013-11-25,77.8,54.1,40.9,49.4,41.1,36.3,91,67,26,30.26,30.17,5,1,9,0.01
2013-11-26,80.9,62.4,42.9,51.2,39.5,35.0,86,46,22,30.20,30.04,6,2,10,0.00
2013-11-27,83.1,63.3,45.9,43.8,38.9,35.1,82,44,20,30.04,29.87,6,2,12,0.00
2013-11-28,71.1,57.6,46.6,47.4,41.9,36.9,83,58,34,30.06,29.89,5,1,12,0.00
2013-11-29,75.4,59.7,47.8,50.5,44.7,39.4,89,60,34,30.19,30.06,6,1,12,0.06
2013-11-30,82.5,58.2,45.9,47.6,41.1,36.9,82,57,22,30.20,30.08,5,1,12,0.00
2013-12-1,86.2,64.2,44.3,42.0,35.6,29.5,73,39,16,30.25,30.12,6,1,11,0.00
2013-12-2,78.2,57.0,43.3,47.6,38.1,32.1,84,53,20,30.14,29.91,4,0,11,0.00
2013-12-3,67.4,50.8,37.8,52.6,43.5,33.9,94,78,51,29.91,29.75,4,0,11,0.01
2013-12-4,68.2,45.5,30.9,43.1,30.1,20.0,90,61,17,29.98,29.79,4,0,11,0.00
2013-12-5,61.3,45.3,32.6,37.0,29.0,22.6,84,56,31,30.13,29.97,4,1,11,0.01
2013-12-6,60.2,43.0,32.3,40.9,31.0,23.6,89,64,42,30.20,30.11,4,1,11,0.01
2013-12-7,58.7,39.5,29.8,49.4,35.7,27.0,95,87,46,30.15,29.99,5,1,11,0.23
2013-12-8,59.4,39.6,27.3,37.4,27.7,18.6,92,67,31,30.25,30.13,7,1,9,0.00
2013-12-9,58.5,47.7,41.2,18.6,10.6,0.6,38,23,14,30.34,30.22,17,8,32,0.02
2013-12-10,73.1,55.3,47.9,20.9,8.3,0.2,21,15,12,30.30,30.12,16,8,27,0.00
2013-12-11,72.7,61.4,54.9,22.2,15.9,11.6,19,17,12,30.19,30.11,11,7,18,0.00
2013-12-12,73.8,58.2,37.5,44.6,26.4,16.1,88,35,15,30.21,30.13,11,3,20,0.00
2013-12-13,69.5,46.6,33.3,48.4,37.4,31.0,95,75,32,30.25,30.15,3,0,5,0.01
2013-12-14,75.8,60.3,36.2,34.8,26.1,21.4,92,30,16,30.32,30.23,13,4,23,0.01
2013-12-15,83.6,69.2,59.4,29.8,24.3,20.8,25,19,13,30.29,30.10,12,4,19,0.00
2013-12-16,89.1,76.6,70.3,32.4,25.7,21.9,18,15,11,30.14,30.04,12,5,17,0.00
2013-12-17,92.5,74.4,58.3,47.6,32.4,23.5,58,25,12,30.10,29.99,11,4,15,0.00
2013-12-18,70.6,58.5,48.9,53.4,46.3,31.5,92,66,29,29.99,29.86,4,0,5,0.00
2013-12-19,59.3,50.4,38.7,49.3,44.3,36.0,92,81,54,29.86,29.70,4,1,8,0.01
2013-12-20,72.5,49.9,35.6,45.0,37.3,32.4,94,67,26,29.96,29.82,8,1,9,0.01
2013-12-21,67.5,46.5,34.2,50.0,38.9,30.8,95,77,46,30.12,29.93,4,0,6,0.00
2013-12-22,68.3,48.5,38.2,55.2,43.1,36.2,96,83,51,30.29,30.12,4,0,6,0.01
2013-12-23,80.9,60.2,39.4,45.5,37.9,34.0,91,49,22,30.35,30.22,8,2,16,0.02
2013-12-24,87.6,69.2,52.8,41.2,35.4,32.4,51,30,16,30.22,30.09,13,3,19,0.01
2013-12-25,78.5,69.2,64.4,33.6,27.2,15.5,29,21,13,30.21,30.13,17,10,25,0.00
2013-12-26,83.8,70.3,60.3,22.9,15.9,10.8,17,13,8,30.19,30.08,13,6,27,0.00
2013-12-27,89.7,66.5,49.4,37.5,21.5,9.4,50,22,8,30.16,30.03,8,2,14,0.00
2013-12-28,79.6,57.3,39.9,50.4,34.4,20.5,89,47,17,30.04,29.92,2,0,5,0.00
2013-12-29,78.5,60.5,37.9,36.7,22.0,11.5,88,28,12,30.17,30.01,11,4,16,0.00
2013-12-30,77.5,56.3,39.0,38.5,25.3,11.5,71,35,11,30.26,30.15,6,0,8,0.00
2013-12-31,72.5,51.9,38.4,48.0,32.8,23.6,86,52,20,30.22,30.10,3,0,5,0.00
2014-1-1,83.4,55.5,35.5,49.7,37.7,28.0,92,58,16,30.15,30.05,7,2,18,0.00
2014-1-2,87.6,67.5,49.0,46.8,33.3,26.7,60,31,14,30.11,29.99,7,2,11,0.00